Time;durP1;ratioP1;P1;durP2;ratioP2;P2;SDS_P1;SDS_P2;PMS_P1;PMS_P2;Temp;Humidity;BMP_temperature;BMP_pressure;BME280_temperature;BME280_humidity;BME280_pressure;Samples;Min_cycle;Max_cycle;Signal;HPM_P1;HPM_P2
2021/11/05 00:00:11;;;;;;;3.00;2.10;;;9.10;96.30;;;;;;4945295;28;20039;-73
2021/11/05 00:02:41;;;;;;;2.97;2.47;;;9.10;96.30;;;;;;4943658;28;20377;-74
2021/11/05 00:05:07;;;;;;;3.53;2.22;;;9.10;96.30;;;;;;4952026;28;20038;-75
2021/11/05 00:07:32;;;;;;;4.13;2.17;;;9.10;96.30;;;;;;4950210;28;20675;-74
2021/11/05 00:09:58;;;;;;;3.08;2.10;;;9.20;96.20;;;;;;4957916;28;20129;-74
2021/11/05 00:12:24;;;;;;;2.55;1.90;;;9.20;96.20;;;;;;4950154;28;20106;-74
2021/11/05 00:14:49;;;;;;;2.60;2.05;;;9.20;96.00;;;;;;4950404;28;20039;-75
2021/11/05 00:17:15;;;;;;;4.95;2.22;;;9.20;96.20;;;;;;4952640;28;20061;-74
2021/11/05 00:19:41;;;;;;;3.10;1.85;;;9.20;96.10;;;;;;4959906;28;20117;-75
2021/11/05 00:22:07;;;;;;;3.17;1.73;;;9.20;96.20;;;;;;4947961;28;20046;-75
2021/11/05 00:24:33;;;;;;;2.38;1.73;;;9.20;96.10;;;;;;4950376;28;20607;-74
2021/11/05 00:26:59;;;;;;;2.78;1.70;;;9.20;96.50;;;;;;4956159;28;20039;-75
2021/11/05 00:29:25;;;;;;;2.63;1.67;;;9.20;96.10;;;;;;4958625;28;20038;-74
2021/11/05 00:31:50;;;;;;;3.38;1.98;;;9.20;96.00;;;;;;4954449;28;20233;-75
2021/11/05 00:34:17;;;;;;;2.25;1.77;;;9.00;96.10;;;;;;4965397;28;20122;-75
2021/11/05 00:36:47;;;;;;;3.83;1.90;;;9.00;96.20;;;;;;4945855;28;20051;-74
2021/11/05 00:39:14;;;;;;;2.03;1.50;;;9.00;96.20;;;;;;4953228;28;20448;-75
2021/11/05 00:41:40;;;;;;;2.10;1.90;;;9.00;96.20;;;;;;4948092;28;20126;-74
2021/11/05 00:44:06;;;;;;;3.28;1.75;;;9.00;96.20;;;;;;4951712;28;20030;-75
2021/11/05 00:46:32;;;;;;;2.50;1.60;;;9.00;96.10;;;;;;4952125;28;20506;-74
2021/11/05 00:48:59;;;;;;;1.88;1.58;;;9.00;96.30;;;;;;4952188;28;20567;-75
2021/11/05 00:51:26;;;;;;;1.70;1.60;;;9.00;96.40;;;;;;4949289;28;20499;-74
2021/11/05 00:53:51;;;;;;;3.70;2.00;;;9.00;96.20;;;;;;4953991;28;20030;-74
2021/11/05 00:56:17;;;;;;;1.88;1.67;;;9.00;96.30;;;;;;4960053;28;20865;-75
2021/11/05 00:58:43;;;;;;;2.60;1.70;;;9.00;96.30;;;;;;4945428;28;20075;-74
2021/11/05 01:01:08;;;;;;;3.42;1.50;;;8.90;96.70;;;;;;4948415;28;20074;-74
2021/11/05 01:03:34;;;;;;;2.92;1.30;;;8.80;96.40;;;;;;4961413;28;20031;-74
2021/11/05 01:06:00;;;;;;;1.33;1.00;;;8.70;96.30;;;;;;4942518;28;20046;-74
2021/11/05 01:08:26;;;;;;;4.32;1.17;;;8.70;96.50;;;;;;4947068;28;20066;-73
2021/11/05 01:10:52;;;;;;;1.42;1.20;;;8.70;96.50;;;;;;4957620;28;20046;-74
2021/11/05 01:13:18;;;;;;;2.97;1.38;;;8.80;96.50;;;;;;4945678;28;20819;-73
2021/11/05 01:15:44;;;;;;;2.83;1.60;;;8.80;96.50;;;;;;4972377;28;20027;-73
2021/11/05 01:18:09;;;;;;;1.48;1.10;;;8.90;96.50;;;;;;4952542;28;20085;-74
2021/11/05 01:20:35;;;;;;;2.00;1.50;;;8.90;96.50;;;;;;4952406;28;20035;-73
2021/11/05 01:23:01;;;;;;;2.00;1.55;;;8.90;96.30;;;;;;4956552;28;20053;-74
2021/11/05 01:25:27;;;;;;;2.30;1.42;;;8.90;96.20;;;;;;4954495;28;20035;-74
2021/11/05 01:27:53;;;;;;;1.92;1.40;;;8.90;96.20;;;;;;4950961;28;20035;-75
2021/11/05 01:30:18;;;;;;;1.70;1.50;;;8.90;96.20;;;;;;4952474;28;20478;-75
2021/11/05 01:32:46;;;;;;;1.45;1.20;;;8.90;96.10;;;;;;4969911;28;20042;-75
2021/11/05 01:35:12;;;;;;;2.13;1.38;;;9.00;96.10;;;;;;4955333;28;20035;-74
2021/11/05 01:37:37;;;;;;;2.72;1.90;;;8.90;96.10;;;;;;4948335;28;20050;-74
2021/11/05 01:40:05;;;;;;;3.38;1.90;;;9.00;95.90;;;;;;4943703;28;20043;-75
2021/11/05 01:42:34;;;;;;;2.45;1.60;;;8.90;96.20;;;;;;4940801;28;20106;-74
2021/11/05 01:44:59;;;;;;;2.15;1.60;;;8.90;96.40;;;;;;4945145;28;20747;-74
2021/11/05 01:47:25;;;;;;;5.25;1.70;;;8.80;96.60;;;;;;4950744;28;20035;-75
2021/11/05 01:49:51;;;;;;;2.55;1.90;;;8.90;96.50;;;;;;4949970;28;20046;-75
2021/11/05 01:52:17;;;;;;;3.42;2.15;;;8.90;96.20;;;;;;4949901;28;20041;-75
2021/11/05 01:54:44;;;;;;;1.42;1.23;;;9.00;96.10;;;;;;4950778;28;20058;-74
2021/11/05 01:57:10;;;;;;;2.30;1.77;;;9.00;96.10;;;;;;4950449;28;20640;-75
2021/11/05 01:59:37;;;;;;;2.50;1.67;;;9.00;96.10;;;;;;4959583;28;20034;-74
2021/11/05 02:02:06;;;;;;;4.72;1.88;;;9.00;96.20;;;;;;4959081;28;20047;-75
2021/11/05 02:04:32;;;;;;;2.67;1.70;;;9.00;96.20;;;;;;4953182;28;20038;-73
2021/11/05 02:06:58;;;;;;;2.55;1.63;;;9.00;96.20;;;;;;4957031;28;20043;-75
2021/11/05 02:09:27;;;;;;;4.20;1.70;;;9.00;96.20;;;;;;4959407;28;20144;-74
2021/11/05 02:11:58;;;;;;;2.17;1.65;;;9.00;96.20;;;;;;4958332;28;20050;-75
2021/11/05 02:14:26;;;;;;;2.35;1.60;;;9.00;96.30;;;;;;4950467;28;20101;-74
2021/11/05 02:16:56;;;;;;;2.22;1.58;;;9.00;96.30;;;;;;4948559;28;20039;-74
2021/11/05 02:19:23;;;;;;;2.85;1.90;;;9.00;96.20;;;;;;4945556;28;20117;-74
2021/11/05 02:21:52;;;;;;;2.30;1.77;;;9.00;96.20;;;;;;4953731;28;21072;-74
2021/11/05 02:24:20;;;;;;;2.88;2.00;;;9.00;96.20;;;;;;4966116;28;20038;-75
2021/11/05 02:26:46;;;;;;;2.17;1.27;;;9.00;96.10;;;;;;4959976;28;20049;-74
2021/11/05 02:29:12;;;;;;;1.75;1.65;;;8.90;96.30;;;;;;4951622;28;20391;-74
2021/11/05 02:31:40;;;;;;;1.90;1.63;;;9.00;96.20;;;;;;4950142;28;20555;-74
2021/11/05 02:34:06;;;;;;;6.28;2.05;;;9.00;96.00;;;;;;4955265;28;20038;-74
2021/11/05 02:36:32;;;;;;;5.05;1.95;;;9.00;96.10;;;;;;4944580;28;20035;-74
2021/11/05 02:38:58;;;;;;;3.60;1.85;;;8.90;96.20;;;;;;4947213;28;20042;-74
2021/11/05 02:41:24;;;;;;;3.15;1.85;;;9.00;96.20;;;;;;4953249;28;20039;-74
2021/11/05 02:43:51;;;;;;;3.17;1.80;;;9.00;96.00;;;;;;4965016;28;20039;-75
2021/11/05 02:46:17;;;;;;;5.07;1.70;;;8.90;95.90;;;;;;4946925;28;20159;-75
2021/11/05 02:48:43;;;;;;;3.25;1.80;;;8.90;96.10;;;;;;4948657;28;20746;-75
2021/11/05 02:51:09;;;;;;;2.45;1.60;;;8.90;96.10;;;;;;4952789;28;20031;-75
2021/11/05 02:53:37;;;;;;;4.07;2.20;;;8.90;96.10;;;;;;4958477;28;20156;-74
2021/11/05 02:56:03;;;;;;;5.15;2.50;;;8.90;96.10;;;;;;4962291;28;20039;-74
2021/11/05 02:58:29;;;;;;;4.10;2.30;;;8.90;96.30;;;;;;4950753;28;20802;-74
2021/11/05 03:00:56;;;;;;;3.80;2.15;;;8.90;96.30;;;;;;4970422;28;20038;-74
2021/11/05 03:03:21;;;;;;;4.13;2.42;;;9.00;96.30;;;;;;4949915;28;20047;-74
2021/11/05 03:05:47;;;;;;;3.33;2.10;;;9.00;96.20;;;;;;4947642;28;20094;-75
2021/11/05 03:08:13;;;;;;;3.10;2.22;;;9.10;96.20;;;;;;4951148;28;20403;-75
2021/11/05 03:10:39;;;;;;;2.83;2.25;;;9.00;96.20;;;;;;4950651;28;20097;-76
2021/11/05 03:13:04;;;;;;;3.38;2.53;;;9.00;96.10;;;;;;4952032;28;20030;-75
2021/11/05 03:15:30;;;;;;;3.53;2.63;;;9.00;96.30;;;;;;4956745;28;20146;-74
2021/11/05 03:18:00;;;;;;;3.95;2.60;;;9.00;96.40;;;;;;4951433;28;20046;-74
2021/11/05 03:20:26;;;;;;;3.90;2.90;;;8.90;96.30;;;;;;4947434;28;20042;-75
2021/11/05 03:22:52;;;;;;;7.15;3.03;;;8.90;96.60;;;;;;4942562;28;20039;-75
2021/11/05 03:25:19;;;;;;;4.22;2.92;;;8.90;96.60;;;;;;4955552;28;20030;-75
2021/11/05 03:27:46;;;;;;;4.18;2.78;;;8.90;96.60;;;;;;4950665;28;20137;-74
2021/11/05 03:30:14;;;;;;;4.22;2.75;;;8.90;96.60;;;;;;4952545;28;20053;-75
2021/11/05 03:32:40;;;;;;;7.05;2.83;;;8.90;96.60;;;;;;4950874;28;20031;-74
2021/11/05 03:35:08;;;;;;;6.10;3.35;;;8.90;96.60;;;;;;4948917;28;20030;-75
2021/11/05 03:37:34;;;;;;;5.10;3.38;;;9.00;96.50;;;;;;4951886;28;20037;-75
2021/11/05 03:40:06;;;;;;;5.00;3.38;;;9.00;96.50;;;;;;4954014;28;20066;-75
2021/11/05 03:42:32;;;;;;;6.45;4.07;;;9.10;96.40;;;;;;4958959;28;20105;-74
2021/11/05 03:44:58;;;;;;;5.10;3.58;;;9.10;96.40;;;;;;4969674;28;20484;-75
2021/11/05 03:47:24;;;;;;;8.35;3.60;;;9.10;96.40;;;;;;4971054;28;20085;-75
2021/11/05 03:49:50;;;;;;;4.82;3.80;;;9.10;96.40;;;;;;4944429;28;20031;-75
2021/11/05 03:52:15;;;;;;;5.60;4.00;;;9.10;96.30;;;;;;4951574;28;20042;-73
2021/11/05 03:54:41;;;;;;;5.78;3.70;;;9.10;96.40;;;;;;4950238;28;20535;-73
2021/11/05 03:57:07;;;;;;;6.15;4.03;;;9.20;96.30;;;;;;4954191;28;20034;-74
2021/11/05 03:59:33;;;;;;;8.90;4.63;;;9.20;96.30;;;;;;4952399;28;20061;-75
2021/11/05 04:01:59;;;;;;;6.82;4.63;;;9.20;96.20;;;;;;4946629;28;20807;-74
2021/11/05 04:04:25;;;;;;;6.55;4.10;;;9.20;96.40;;;;;;4953578;28;20030;-76
2021/11/05 04:06:51;;;;;;;8.75;4.90;;;9.20;96.20;;;;;;4951869;28;20049;-75
2021/11/05 04:09:17;;;;;;;6.60;4.18;;;9.20;96.20;;;;;;4948244;28;20057;-74
2021/11/05 04:11:43;;;;;;;4.65;3.63;;;9.10;96.20;;;;;;4952427;28;20046;-74
2021/11/05 04:14:09;;;;;;;9.82;4.50;;;9.20;96.20;;;;;;4955442;28;20038;-74
2021/11/05 04:16:34;;;;;;;6.85;4.18;;;9.20;96.10;;;;;;4955347;28;20058;-74
2021/11/05 04:19:00;;;;;;;6.90;4.20;;;9.20;96.10;;;;;;4958732;28;20427;-74
2021/11/05 04:21:26;;;;;;;8.32;4.90;;;9.20;96.10;;;;;;4948983;28;20149;-74
2021/11/05 04:23:52;;;;;;;8.02;4.80;;;9.20;96.00;;;;;;4947337;28;20117;-73
2021/11/05 04:26:18;;;;;;;9.57;4.55;;;9.10;96.10;;;;;;4958681;28;20484;-75
2021/11/05 04:28:44;;;;;;;8.10;5.80;;;9.20;96.30;;;;;;4944968;28;20146;-74
2021/11/05 04:31:09;;;;;;;6.88;5.28;;;9.20;96.20;;;;;;4949954;28;20086;-75
2021/11/05 04:33:36;;;;;;;6.63;4.63;;;9.20;96.30;;;;;;4946061;28;20105;-73
2021/11/05 04:36:04;;;;;;;7.93;4.93;;;9.20;96.30;;;;;;4947409;28;20038;-75
2021/11/05 04:38:30;;;;;;;7.50;5.05;;;9.20;96.20;;;;;;4956598;28;20118;-75
2021/11/05 04:40:56;;;;;;;7.82;5.20;;;9.20;96.20;;;;;;4952726;28;20646;-75
2021/11/05 04:43:23;;;;;;;9.32;5.68;;;9.20;96.30;;;;;;4956200;28;20034;-74
2021/11/05 04:45:49;;;;;;;9.05;6.00;;;9.20;96.30;;;;;;4957822;28;20687;-75
2021/11/05 04:48:15;;;;;;;9.60;5.80;;;9.30;96.30;;;;;;4967991;28;20042;-74
2021/11/05 04:50:41;;;;;;;10.82;5.28;;;9.20;96.10;;;;;;4952426;28;20045;-74
2021/11/05 04:53:07;;;;;;;9.95;6.13;;;9.30;96.30;;;;;;4942860;28;20031;-74
2021/11/05 04:55:33;;;;;;;10.27;6.72;;;9.30;96.20;;;;;;4958102;28;20138;-75
2021/11/05 04:57:59;;;;;;;9.65;6.47;;;9.30;96.30;;;;;;4947321;28;20042;-75
2021/11/05 05:00:26;;;;;;;8.90;5.70;;;9.30;96.20;;;;;;4954202;28;20062;-74
2021/11/05 05:02:53;;;;;;;9.55;6.22;;;9.30;96.00;;;;;;4943714;28;20046;-74
2021/11/05 05:05:20;;;;;;;9.73;5.82;;;9.20;96.20;;;;;;4944175;28;20039;-74
2021/11/05 05:07:46;;;;;;;9.90;6.82;;;9.30;96.00;;;;;;4950558;28;20066;-74
2021/11/05 05:10:14;;;;;;;12.25;7.60;;;9.30;96.00;;;;;;4949955;28;20045;-75
2021/11/05 05:12:40;;;;;;;13.38;7.25;;;9.20;96.00;;;;;;4949153;28;20030;-75
2021/11/05 05:15:09;;;;;;;10.68;7.53;;;9.20;96.10;;;;;;4959843;28;20070;-76
2021/11/05 05:17:35;;;;;;;11.38;7.72;;;9.20;96.10;;;;;;4949844;28;20035;-73
2021/11/05 05:20:02;;;;;;;11.85;7.15;;;9.10;96.00;;;;;;4946268;28;20733;-73
2021/11/05 05:22:28;;;;;;;12.68;8.05;;;9.10;96.40;;;;;;4941737;28;20032;-73
2021/11/05 05:24:54;;;;;;;11.32;7.63;;;9.10;96.40;;;;;;4948768;28;20065;-74
2021/11/05 05:27:20;;;;;;;12.02;8.20;;;9.10;96.40;;;;;;4948639;28;20038;-72
2021/11/05 05:29:47;;;;;;;11.00;7.50;;;9.20;96.50;;;;;;4950136;28;20488;-74
2021/11/05 05:32:14;;;;;;;14.52;8.73;;;9.10;96.40;;;;;;4957057;28;20039;-73
2021/11/05 05:34:40;;;;;;;15.68;8.73;;;9.20;96.50;;;;;;4951936;28;20046;-73
2021/11/05 05:37:06;;;;;;;15.35;8.50;;;9.20;96.50;;;;;;4946667;28;20035;-74
2021/11/05 05:39:32;;;;;;;15.40;9.15;;;9.20;96.50;;;;;;4952464;28;20475;-73
2021/11/05 05:41:59;;;;;;;15.77;8.77;;;9.20;96.40;;;;;;4952020;28;20511;-73
2021/11/05 05:44:25;;;;;;;18.40;9.77;;;9.20;96.50;;;;;;4968504;28;20431;-73
2021/11/05 05:46:51;;;;;;;14.77;8.88;;;9.20;96.40;;;;;;4954637;28;20027;-73
2021/11/05 05:49:17;;;;;;;16.45;9.10;;;9.30;96.30;;;;;;4957738;28;20079;-73
2021/11/05 05:51:43;;;;;;;16.02;9.38;;;9.30;96.30;;;;;;4949179;28;20141;-73
2021/11/05 05:54:08;;;;;;;13.20;8.45;;;9.30;96.20;;;;;;4951768;28;20034;-73
2021/11/05 05:56:34;;;;;;;13.73;8.90;;;9.30;96.40;;;;;;4953275;28;20058;-73
2021/11/05 05:59:00;;;;;;;17.20;9.82;;;9.30;96.10;;;;;;4954193;28;20097;-74
2021/11/05 06:01:26;;;;;;;17.40;10.07;;;9.40;96.20;;;;;;4955576;28;20543;-73
2021/11/05 06:03:52;;;;;;;16.27;9.48;;;9.30;96.10;;;;;;4954043;28;20042;-73
2021/11/05 06:06:17;;;;;;;14.00;9.20;;;9.40;96.20;;;;;;4953698;28;20081;-73
2021/11/05 06:08:44;;;;;;;14.15;9.40;;;9.40;96.20;;;;;;4965825;28;20047;-73
2021/11/05 06:11:10;;;;;;;10.65;7.57;;;9.40;96.00;;;;;;4952771;28;20030;-73
2021/11/05 06:13:35;;;;;;;18.67;10.23;;;9.40;96.00;;;;;;4962240;28;20567;-73
2021/11/05 06:16:02;;;;;;;19.20;10.40;;;9.30;96.00;;;;;;4943581;28;20101;-73
2021/11/05 06:18:28;;;;;;;19.33;10.40;;;9.30;96.10;;;;;;4943032;28;20059;-73
2021/11/05 06:20:54;;;;;;;15.95;9.93;;;9.20;96.20;;;;;;4965792;28;20239;-73
2021/11/05 06:23:20;;;;;;;16.15;9.55;;;9.30;96.10;;;;;;4954452;28;20048;-73
2021/11/05 06:25:46;;;;;;;19.30;10.65;;;9.40;96.10;;;;;;4954171;28;20043;-74
2021/11/05 06:28:12;;;;;;;16.27;9.15;;;9.40;96.10;;;;;;4953148;28;20114;-74
2021/11/05 06:30:38;;;;;;;18.35;10.35;;;9.40;96.20;;;;;;4954015;28;20031;-73
2021/11/05 06:33:04;;;;;;;16.65;9.20;;;9.50;96.10;;;;;;4951977;28;20038;-74
2021/11/05 06:35:29;;;;;;;14.95;9.55;;;9.50;95.90;;;;;;4969326;28;20199;-74
2021/11/05 06:37:58;;;;;;;20.92;10.77;;;9.50;95.80;;;;;;4951630;28;20094;-74
2021/11/05 06:40:24;;;;;;;18.40;11.05;;;9.60;95.80;;;;;;4953248;28;20043;-74
2021/11/05 06:42:50;;;;;;;15.52;10.15;;;9.50;95.60;;;;;;4954225;28;20034;-73
2021/11/05 06:45:16;;;;;;;17.70;9.60;;;9.50;95.80;;;;;;4958299;28;20509;-74
2021/11/05 06:47:41;;;;;;;18.55;10.52;;;9.50;95.90;;;;;;4956025;28;20043;-73
2021/11/05 06:50:09;;;;;;;18.02;10.68;;;9.50;95.70;;;;;;4950911;28;20027;-74
2021/11/05 06:52:35;;;;;;;15.65;10.27;;;9.50;95.90;;;;;;4952346;28;20149;-74
2021/11/05 06:55:05;;;;;;;19.70;10.82;;;9.60;95.90;;;;;;4956866;28;20067;-74
2021/11/05 06:57:31;;;;;;;15.57;9.25;;;9.60;95.80;;;;;;4955734;28;20121;-74
2021/11/05 06:59:58;;;;;;;19.05;11.02;;;9.60;95.80;;;;;;4959505;28;20038;-74
2021/11/05 07:02:24;;;;;;;19.75;10.98;;;9.60;95.50;;;;;;4961134;28;20539;-74
2021/11/05 07:04:50;;;;;;;18.65;10.52;;;9.70;95.70;;;;;;4953544;28;20057;-73
2021/11/05 07:07:16;;;;;;;18.58;11.15;;;9.70;95.40;;;;;;4959075;28;20038;-74
2021/11/05 07:09:41;;;;;;;26.45;11.07;;;9.70;95.30;;;;;;4958199;28;20037;-74
2021/11/05 07:12:08;;;;;;;15.40;9.68;;;9.70;95.50;;;;;;4949519;28;20173;-74
2021/11/05 07:14:34;;;;;;;16.27;9.50;;;9.70;95.50;;;;;;4954696;28;20231;-73
2021/11/05 07:17:00;;;;;;;16.30;9.23;;;9.70;95.40;;;;;;4957210;28;20092;-75
2021/11/05 07:19:26;;;;;;;13.18;8.52;;;9.70;95.50;;;;;;4948763;28;20031;-74
2021/11/05 07:21:59;;;;;;;14.85;8.70;;;9.80;95.60;;;;;;4958987;28;20038;-75
2021/11/05 07:24:27;;;;;;;15.82;9.75;;;9.80;95.40;;;;;;4965220;28;20034;-74
2021/11/05 07:26:54;;;;;;;15.25;9.27;;;9.90;95.10;;;;;;4953027;28;20090;-74
2021/11/05 07:29:25;;;;;;;13.88;8.77;;;9.90;95.10;;;;;;4946424;28;20070;-74
2021/11/05 07:31:53;;;;;;;17.63;9.63;;;9.90;95.20;;;;;;4953775;28;20117;-74
2021/11/05 07:34:19;;;;;;;17.77;9.23;;;10.00;95.50;;;;;;4950294;28;20046;-74
2021/11/05 07:36:45;;;;;;;23.65;10.85;;;10.00;95.10;;;;;;4953839;28;20403;-74
2021/11/05 07:39:10;;;;;;;19.25;10.90;;;10.10;95.00;;;;;;4957284;28;20092;-74
2021/11/05 07:41:36;;;;;;;15.18;9.75;;;10.10;94.60;;;;;;4954794;28;20041;-74
2021/11/05 07:44:02;;;;;;;21.40;11.18;;;10.10;94.60;;;;;;4956325;28;20454;-74
2021/11/05 07:46:29;;;;;;;25.55;11.85;;;10.20;94.70;;;;;;4955720;28;20563;-74
2021/11/05 07:48:54;;;;;;;18.65;11.80;;;10.10;94.30;;;;;;4959413;28;20031;-74
2021/11/05 07:51:20;;;;;;;21.00;11.50;;;10.20;94.50;;;;;;4956082;28;20451;-74
2021/11/05 07:53:46;;;;;;;21.40;12.38;;;10.20;94.50;;;;;;4956088;28;20033;-74
2021/11/05 07:56:12;;;;;;;19.00;11.38;;;10.20;94.40;;;;;;4957899;28;20090;-74
2021/11/05 07:58:38;;;;;;;20.35;11.23;;;10.10;94.20;;;;;;4954852;28;20138;-74
2021/11/05 08:01:04;;;;;;;21.45;10.45;;;10.10;94.70;;;;;;4958162;28;20117;-74
2021/11/05 08:03:30;;;;;;;19.55;9.88;;;10.10;94.60;;;;;;4953939;28;20045;-74
2021/11/05 08:05:55;;;;;;;13.85;9.43;;;10.10;94.40;;;;;;4972024;28;20034;-73
2021/11/05 08:08:21;;;;;;;16.83;8.95;;;10.00;94.40;;;;;;4954692;28;20073;-74
2021/11/05 08:10:47;;;;;;;15.57;8.60;;;10.00;94.70;;;;;;4953514;28;20035;-74
2021/11/05 08:13:14;;;;;;;20.35;9.27;;;10.10;94.90;;;;;;4951198;28;20070;-74
2021/11/05 08:15:40;;;;;;;20.83;10.80;;;10.10;94.80;;;;;;4958790;28;20094;-74
2021/11/05 08:18:05;;;;;;;15.02;9.13;;;10.20;94.70;;;;;;4957130;28;20039;-74
2021/11/05 08:20:31;;;;;;;17.23;9.63;;;10.30;94.70;;;;;;4950445;28;20081;-74
2021/11/05 08:22:57;;;;;;;18.30;9.73;;;10.30;94.60;;;;;;4962704;28;20046;-74
2021/11/05 08:25:26;;;;;;;13.43;8.95;;;10.40;94.30;;;;;;4951496;28;20035;-74
2021/11/05 08:27:52;;;;;;;12.77;8.23;;;10.50;94.30;;;;;;4968993;28;20053;-74
2021/11/05 08:30:22;;;;;;;14.38;9.13;;;10.60;94.20;;;;;;4952198;28;20035;-74
2021/11/05 08:32:48;;;;;;;18.98;9.90;;;10.70;94.10;;;;;;4949771;28;20039;-74
2021/11/05 08:35:14;;;;;;;19.00;10.20;;;10.80;93.60;;;;;;4948810;28;20434;-74
2021/11/05 08:37:40;;;;;;;14.93;9.68;;;10.70;93.60;;;;;;4954246;28;20027;-74
2021/11/05 08:40:07;;;;;;;18.05;9.82;;;10.70;93.60;;;;;;4952733;28;20041;-74
2021/11/05 08:42:33;;;;;;;17.30;10.70;;;10.80;93.80;;;;;;4949902;28;20376;-74
2021/11/05 08:44:59;;;;;;;15.40;10.57;;;10.80;93.80;;;;;;4948421;28;20046;-74
2021/11/05 08:47:24;;;;;;;17.85;11.13;;;10.80;93.80;;;;;;4968669;28;20042;-73
2021/11/05 08:49:53;;;;;;;15.30;9.93;;;10.80;93.70;;;;;;4957213;28;20038;-73
2021/11/05 08:52:19;;;;;;;18.10;10.68;;;10.80;93.40;;;;;;4949556;28;20035;-74
2021/11/05 08:54:45;;;;;;;16.10;9.32;;;10.80;93.60;;;;;;4948919;28;20038;-74
2021/11/05 08:57:11;;;;;;;15.85;9.07;;;10.70;93.70;;;;;;4954404;28;20034;-74
2021/11/05 08:59:38;;;;;;;16.33;9.23;;;10.70;93.90;;;;;;4957103;28;20114;-74
2021/11/05 09:02:04;;;;;;;20.70;9.93;;;10.70;94.00;;;;;;4959027;28;20074;-75
2021/11/05 09:04:30;;;;;;;19.42;10.20;;;10.70;93.70;;;;;;4954206;28;20073;-73
2021/11/05 09:06:56;;;;;;;15.63;9.20;;;10.70;94.10;;;;;;4948807;28;20762;-76
2021/11/05 09:09:23;;;;;;;17.90;10.30;;;10.80;93.70;;;;;;4947736;28;20045;-74
2021/11/05 09:11:50;;;;;;;16.65;9.45;;;10.80;93.50;;;;;;4957676;28;20134;-75
2021/11/05 09:14:17;;;;;;;15.82;9.13;;;10.80;93.40;;;;;;4949555;28;20031;-74
2021/11/05 09:16:43;;;;;;;16.15;9.52;;;10.80;93.50;;;;;;4955306;28;20031;-74
2021/11/05 09:19:08;;;;;;;16.17;8.93;;;10.80;93.40;;;;;;4963579;28;20886;-72
2021/11/05 09:21:35;;;;;;;14.35;9.68;;;10.80;93.50;;;;;;4952148;28;20042;-75
2021/11/05 09:24:02;;;;;;;15.63;9.43;;;10.90;93.70;;;;;;4955549;28;20034;-75
2021/11/05 09:26:29;;;;;;;20.90;9.85;;;10.90;93.30;;;;;;4949770;28;20488;-75
2021/11/05 09:28:54;;;;;;;14.98;9.05;;;11.00;93.30;;;;;;4955341;28;20034;-73
2021/11/05 09:31:21;;;;;;;15.00;8.73;;;11.00;93.30;;;;;;4951314;28;20034;-74
2021/11/05 09:33:47;;;;;;;13.55;8.13;;;11.10;93.20;;;;;;4951802;28;20023;-75
2021/11/05 09:36:12;;;;;;;12.77;8.93;;;11.10;93.20;;;;;;4951920;28;20558;-74
2021/11/05 09:38:38;;;;;;;13.88;8.57;;;11.20;93.40;;;;;;4954514;28;20442;-74
2021/11/05 09:41:05;;;;;;;12.10;7.63;;;11.20;92.90;;;;;;4949872;28;20053;-74
2021/11/05 09:43:31;;;;;;;13.73;7.57;;;11.20;92.50;;;;;;4951375;28;20105;-75
2021/11/05 09:45:57;;;;;;;15.63;7.75;;;11.30;92.40;;;;;;4957678;28;20495;-74
2021/11/05 09:48:23;;;;;;;11.57;7.38;;;11.30;92.80;;;;;;4950956;28;20062;-73
2021/11/05 09:50:50;;;;;;;16.27;7.95;;;11.40;92.40;;;;;;4974457;28;20037;-75
2021/11/05 09:53:16;;;;;;;10.65;6.82;;;11.50;92.50;;;;;;4948431;28;20027;-74
2021/11/05 09:55:46;;;;;;;11.68;7.55;;;11.50;91.60;;;;;;4958477;28;20035;-74
2021/11/05 09:58:13;;;;;;;10.60;6.72;;;11.50;91.70;;;;;;4946776;28;20146;-73
2021/11/05 10:00:41;;;;;;;11.82;6.90;;;11.60;91.50;;;;;;4953898;28;20571;-75
2021/11/05 10:03:06;;;;;;;11.77;6.75;;;11.60;91.50;;;;;;4952837;28;20042;-76
2021/11/05 10:05:34;;;;;;;9.27;6.47;;;11.50;91.80;;;;;;4969820;28;20133;-76
2021/11/05 10:08:02;;;;;;;10.43;6.18;;;11.40;91.60;;;;;;4954699;28;20089;-75
2021/11/05 10:10:30;;;;;;;9.95;6.60;;;11.50;91.80;;;;;;4957360;28;20821;-75
2021/11/05 10:13:09;;;;;;;10.75;6.82;;;11.50;91.60;;;;;;4943775;28;20391;-72
2021/11/05 10:15:46;;;;;;;9.88;6.57;;;11.50;91.30;;;;;;4950230;28;20046;-72
2021/11/05 10:18:21;;;;;;;11.40;6.90;;;11.40;91.50;;;;;;4948620;28;20101;-73
2021/11/05 10:21:04;;;;;;;13.57;6.95;;;11.40;91.60;;;;;;4950131;28;20518;-72
2021/11/05 10:23:30;;;;;;;11.05;6.57;;;11.30;91.80;;;;;;4950140;28;20046;-72
2021/11/05 10:25:55;;;;;;;9.85;5.88;;;11.40;91.10;;;;;;4957070;28;20042;-71
2021/11/05 10:28:26;;;;;;;11.27;6.80;;;11.40;91.30;;;;;;4953267;28;20043;-70
2021/11/05 10:31:00;;;;;;;16.33;6.65;;;11.40;91.40;;;;;;4964239;28;20051;-78
2021/11/05 10:33:35;;;;;;;9.82;5.93;;;11.50;91.40;;;;;;4955376;28;20049;-72
2021/11/05 10:36:04;;;;;;;14.23;6.88;;;11.60;91.40;;;;;;4954303;28;20041;-72
2021/11/05 10:38:34;;;;;;;10.30;6.50;;;11.70;91.20;;;;;;4951165;28;20093;-74
2021/11/05 10:41:01;;;;;;;8.95;6.47;;;11.70;90.70;;;;;;4956198;28;20038;-75
2021/11/05 10:43:43;;;;;;;12.35;6.05;;;11.80;90.90;;;;;;4949101;28;20121;-75
2021/11/05 10:46:39;;;;;;;10.35;6.85;;;11.80;91.00;;;;;;4955777;28;20118;-76
2021/11/05 10:49:26;;;;;;;8.38;5.68;;;11.80;91.00;;;;;;4959339;28;20529;-76
2021/11/05 10:52:12;;;;;;;10.35;6.40;;;11.90;90.80;;;;;;4957509;28;20042;-73
2021/11/05 10:54:59;;;;;;;12.32;6.90;;;12.00;90.80;;;;;;4950241;28;20039;-73
2021/11/05 10:57:41;;;;;;;;;;;12.00;90.50;;;;;;4957580;28;20647;-73
2021/11/05 11:00:29;;;;;;;13.40;6.72;;;12.00;90.80;;;;;;4960027;28;20004;-75
2021/11/05 11:03:09;;;;;;;13.25;7.32;;;12.00;90.70;;;;;;4948790;28;20121;-75
2021/11/05 11:05:38;;;;;;;11.77;6.53;;;12.10;90.40;;;;;;4951371;28;20043;-77
2021/11/05 11:08:04;;;;;;;9.65;5.93;;;12.20;90.00;;;;;;4964315;28;20035;-73
2021/11/05 11:10:32;;;;;;;9.68;6.40;;;12.40;89.90;;;;;;4956694;28;20035;-72
2021/11/05 11:12:59;;;;;;;10.50;5.88;;;12.50;88.90;;;;;;4956127;28;20035;-73
2021/11/05 11:15:36;;;;;;;10.02;5.82;;;12.60;88.60;;;;;;4954566;28;20114;-72
2021/11/05 11:18:03;;;;;;;10.27;6.32;;;12.70;88.40;;;;;;4959677;28;20042;-72
2021/11/05 11:20:36;;;;;;;10.65;5.45;;;12.80;88.70;;;;;;4958289;28;20053;-72
2021/11/05 11:23:02;;;;;;;6.78;5.15;;;12.90;87.00;;;;;;4953777;28;20030;-73
2021/11/05 11:25:29;;;;;;;7.65;4.57;;;12.90;86.30;;;;;;4956938;28;20412;-72
2021/11/05 11:27:55;;;;;;;6.45;4.63;;;12.90;86.70;;;;;;4945610;28;20041;-72
2021/11/05 11:30:21;;;;;;;9.70;5.53;;;12.90;86.90;;;;;;4958461;28;20035;-73
2021/11/05 11:32:49;;;;;;;8.90;5.40;;;13.00;86.80;;;;;;4951565;28;20027;-73
2021/11/05 11:35:16;;;;;;;8.13;5.28;;;13.10;85.40;;;;;;4948169;28;20031;-72
2021/11/05 11:37:42;;;;;;;9.05;5.13;;;13.20;85.30;;;;;;4945631;28;20698;-73
2021/11/05 11:40:08;;;;;;;6.50;4.90;;;13.40;84.90;;;;;;4949296;28;20564;-75
2021/11/05 11:42:34;;;;;;;7.13;4.78;;;13.50;83.70;;;;;;4970491;28;20053;-74
2021/11/05 11:45:00;;;;;;;6.82;4.85;;;13.70;82.50;;;;;;4964617;28;20032;-73
2021/11/05 11:47:26;;;;;;;7.60;4.55;;;13.80;82.80;;;;;;4955678;28;20724;-74
2021/11/05 11:49:52;;;;;;;15.32;7.32;;;13.90;81.40;;;;;;4966783;28;20046;-75
2021/11/05 11:52:18;;;;;;;33.90;18.83;;;14.00;81.50;;;;;;4951660;28;20134;-74
2021/11/05 11:54:47;;;;;;;8.23;6.15;;;14.10;80.80;;;;;;4954261;28;20063;-75
2021/11/05 11:57:13;;;;;;;10.90;4.93;;;14.00;81.60;;;;;;4953723;28;20051;-80
2021/11/05 11:59:40;;;;;;;7.43;5.93;;;13.80;82.30;;;;;;4970147;28;20037;-74
2021/11/05 12:02:28;;;;;;;11.13;5.70;;;13.70;82.40;;;;;;4952024;28;20484;-72
2021/11/05 12:04:55;;;;;;;7.88;4.85;;;13.60;83.00;;;;;;4959226;28;20538;-72
2021/11/05 12:07:21;;;;;;;8.80;4.88;;;13.50;83.20;;;;;;4956722;28;20034;-73
2021/11/05 12:09:47;;;;;;;7.88;4.55;;;13.50;83.10;;;;;;4957009;28;20077;-72
2021/11/05 12:12:21;;;;;;;7.18;4.70;;;13.50;83.40;;;;;;4944107;28;20716;-72
2021/11/05 12:15:00;;;;;;;9.90;5.65;;;13.40;83.90;;;;;;4963526;28;20512;-73
2021/11/05 12:17:54;;;;;;;5.47;4.50;;;13.30;84.60;;;;;;4952359;28;20035;-72
2021/11/05 12:20:29;;;;;;;7.10;4.78;;;13.20;83.40;;;;;;4976780;28;20038;-73
2021/11/05 12:23:10;;;;;;;5.60;4.60;;;13.10;83.80;;;;;;4973052;28;20629;-75
2021/11/05 12:25:44;;;;;;;20.98;12.57;;;13.20;84.10;;;;;;4954488;28;20046;-72
2021/11/05 12:28:20;;;;;;;16.65;10.70;;;13.30;84.20;;;;;;4958276;28;20041;-73
2021/11/05 12:30:50;;;;;;;16.63;9.52;;;13.40;82.80;;;;;;4958347;28;20069;-73
2021/11/05 12:33:34;;;;;;;15.35;9.35;;;13.40;83.60;;;;;;4964540;28;20038;-73
2021/11/05 12:36:04;;;;;;;11.30;8.15;;;13.40;83.60;;;;;;4953236;28;20695;-73
2021/11/05 12:38:31;;;;;;;10.88;7.57;;;13.30;82.40;;;;;;4955435;28;20125;-73
2021/11/05 12:41:03;;;;;;;15.50;8.15;;;13.30;82.70;;;;;;4973916;28;20047;-73
2021/11/05 12:43:31;;;;;;;12.45;7.30;;;13.20;83.40;;;;;;4956066;28;20043;-73
2021/11/05 12:46:18;;;;;;;10.60;6.85;;;13.20;83.80;;;;;;4956582;28;20082;-73
2021/11/05 12:48:55;;;;;;;11.23;7.85;;;13.20;84.50;;;;;;4950186;28;20698;-73